createdAt,value
2022-12-14T00:00:30.307Z,100146.50
2022-12-14T00:02:57.473Z,100139.22
2022-12-14T00:05:24.419Z,100137.56
2022-12-14T00:07:51.307Z,100141.56
2022-12-14T00:10:18.162Z,100135.13
2022-12-14T00:12:45.065Z,100130.66
2022-12-14T00:15:12.136Z,100132.63
2022-12-14T00:17:39.937Z,100128.16
2022-12-14T00:20:07.144Z,100126.84
2022-12-14T00:22:34.053Z,100126.34
2022-12-14T00:25:00.900Z,100130.34
2022-12-14T00:27:28.177Z,100125.88
2022-12-14T00:29:55.077Z,100113.66
2022-12-14T00:32:23.345Z,100113.66
2022-12-14T00:34:50.238Z,100115.97
2022-12-14T00:37:17.117Z,100114.66
2022-12-14T00:39:44.037Z,100112.19
2022-12-14T00:42:10.899Z,100111.66
2022-12-14T00:44:37.807Z,100105.91
2022-12-14T00:47:04.707Z,100102.25
2022-12-14T00:49:31.597Z,100104.91
2022-12-14T00:51:58.517Z,100098.47
2022-12-14T00:54:25.389Z,100099.16
2022-12-14T00:56:52.259Z,100101.78
2022-12-14T00:59:22.875Z,100094.81
2022-12-14T01:01:52.741Z,100094.66
2022-12-14T01:04:19.943Z,100097.81
2022-12-14T01:06:47.552Z,100094.84
2022-12-14T01:09:14.865Z,100096.34
2022-12-14T01:11:48.177Z,100095.00
2022-12-14T01:14:17.632Z,100090.06
2022-12-14T01:16:44.852Z,100085.91
2022-12-14T01:19:12.877Z,100085.75
2022-12-14T01:21:39.966Z,100091.72
2022-12-14T01:24:07.527Z,100090.72
2022-12-14T01:26:37.098Z,100078.50
2022-12-14T01:29:04.644Z,100094.88
2022-12-14T01:31:32.880Z,100082.31
2022-12-14T01:33:59.777Z,100094.19
2022-12-14T01:36:27.737Z,100089.25
2022-12-14T01:38:55.945Z,100091.09
2022-12-14T01:41:23.020Z,100087.75
2022-12-14T01:43:50.285Z,100088.44
2022-12-14T01:46:21.183Z,100088.28
2022-12-14T01:48:48.445Z,100091.72
2022-12-14T01:51:15.444Z,100096.03
2022-12-14T01:53:42.325Z,100093.06
2022-12-14T01:56:09.276Z,100094.84
2022-12-14T01:58:36.236Z,100101.13
2022-12-14T02:01:03.577Z,100098.47
2022-12-14T02:03:33.655Z,100093.50
2022-12-14T02:06:03.213Z,100101.75
2022-12-14T02:08:30.397Z,100106.34
2022-12-14T02:10:57.864Z,100099.72
2022-12-14T02:13:34.909Z,100106.31
2022-12-14T02:16:01.820Z,100097.25
2022-12-14T02:18:29.843Z,100101.03
2022-12-14T02:20:56.936Z,100096.03
2022-12-14T02:23:24.223Z,100102.31
2022-12-14T02:26:03.387Z,100104.94
2022-12-14T02:28:43.579Z,100102.28
2022-12-14T02:31:10.737Z,100103.56
2022-12-14T02:33:47.136Z,100112.66
2022-12-14T02:36:19.326Z,100109.66
2022-12-14T02:38:55.920Z,100104.69
2022-12-14T02:41:29.997Z,100103.69
2022-12-14T02:44:03.790Z,100096.13
2022-12-14T02:46:33.913Z,100088.72
2022-12-14T02:49:03.369Z,100097.59
2022-12-14T02:51:52.816Z,100093.28
2022-12-14T02:54:32.505Z,100091.75
2022-12-14T02:57:09.414Z,100106.25
2022-12-14T02:59:36.109Z,100111.66
2022-12-14T03:02:03.743Z,100106.66
2022-12-14T03:04:30.685Z,100112.09
2022-12-14T03:07:02.871Z,100115.00
2022-12-14T03:09:30.477Z,100105.59
2022-12-14T03:12:07.272Z,100099.81
2022-12-14T03:14:33.824Z,100104.91
2022-12-14T03:17:09.537Z,100110.31
2022-12-14T03:19:39.750Z,100103.72
2022-12-14T03:22:09.461Z,100097.09
2022-12-14T03:24:39.526Z,100097.72
2022-12-14T03:27:10.152Z,100101.16
2022-12-14T03:29:42.313Z,100090.28
2022-12-14T03:32:11.143Z,100088.13
2022-12-14T03:34:40.583Z,100087.13
2022-12-14T03:37:07.189Z,100091.69
2022-12-14T03:39:34.735Z,100087.53
2022-12-14T03:42:16.500Z,100087.88
2022-12-14T03:44:49.590Z,100082.91
2022-12-14T03:47:35.043Z,100090.28
2022-12-14T03:50:05.576Z,100078.59
2022-12-14T03:52:36.459Z,100075.09
2022-12-14T03:55:09.861Z,100074.56
2022-12-14T03:57:39.238Z,100079.97
2022-12-14T04:00:07.900Z,100078.97
2022-12-14T04:02:42.843Z,100075.97
2022-12-14T04:05:13.905Z,100072.16
2022-12-14T04:07:56.137Z,100074.13
2022-12-14T04:10:47.440Z,100077.03
2022-12-14T04:13:38.051Z,100086.53
2022-12-14T04:16:30.409Z,100078.78
2022-12-14T04:19:03.569Z,100090.63
2022-12-14T04:21:42.584Z,100086.47
2022-12-14T04:24:32.829Z,100092.72
2022-12-14T04:27:07.435Z,100096.94
2022-12-14T04:29:53.815Z,100094.25
2022-12-14T04:32:22.959Z,100102.66
2022-12-14T04:34:57.214Z,100108.88
2022-12-14T04:37:26.140Z,100105.06
2022-12-14T04:39:54.851Z,100103.41
2022-12-14T04:42:27.901Z,100098.94
2022-12-14T04:44:58.757Z,100100.72
2022-12-14T04:47:30.745Z,100103.00
2022-12-14T04:50:00.487Z,100104.13
2022-12-14T04:52:47.358Z,100112.03
2022-12-14T04:55:16.942Z,100114.59
2022-12-14T04:57:47.793Z,100103.75
2022-12-14T05:00:15.069Z,100105.72
2022-12-14T05:02:41.807Z,100096.81
2022-12-14T05:05:11.252Z,100112.25
2022-12-14T05:07:40.707Z,100098.88
2022-12-14T05:10:12.781Z,100103.13
2022-12-14T05:12:43.463Z,100097.00
2022-12-14T05:15:21.159Z,100095.97
2022-12-14T05:17:48.069Z,100093.81
2022-12-14T05:20:15.997Z,100087.41
2022-12-14T05:22:42.870Z,100093.81
2022-12-14T05:25:09.678Z,100085.44
2022-12-14T05:27:36.369Z,100090.91
2022-12-14T05:30:03.566Z,100083.56
2022-12-14T05:32:30.536Z,100090.47
2022-12-14T05:34:57.202Z,100079.84
2022-12-14T05:37:23.860Z,100083.16
2022-12-14T05:39:50.504Z,100087.28
2022-12-14T05:42:17.242Z,100091.41
2022-12-14T05:44:43.854Z,100097.22
2022-12-14T05:47:10.954Z,100101.34
2022-12-14T05:49:37.598Z,100105.16
2022-12-14T05:52:04.505Z,100103.41
2022-12-14T05:54:31.225Z,100098.81
2022-12-14T05:56:57.852Z,100105.44
2022-12-14T05:59:24.548Z,100108.13
2022-12-14T06:01:51.445Z,100109.97
2022-12-14T06:04:18.727Z,100109.03
2022-12-14T06:06:45.542Z,100102.50
2022-12-14T06:09:14.428Z,100112.78
2022-12-14T06:11:41.911Z,100115.78
2022-12-14T06:14:09.204Z,100110.03
2022-12-14T06:16:36.478Z,100110.75
2022-12-14T06:19:04.432Z,100115.41
2022-12-14T06:21:32.816Z,100106.91
2022-12-14T06:24:00.084Z,100104.28
2022-12-14T06:26:27.717Z,100106.13
2022-12-14T06:28:55.385Z,100122.78
2022-12-14T06:31:23.252Z,100117.38
2022-12-14T06:33:50.230Z,100121.22
2022-12-14T06:36:23.008Z,100114.69
2022-12-14T06:38:52.184Z,100124.91
2022-12-14T06:41:19.619Z,100118.38
2022-12-14T06:43:49.760Z,100118.19
2022-12-14T06:46:18.222Z,100122.34
2022-12-14T06:48:48.911Z,100123.38
2022-12-14T06:51:19.701Z,100128.00
2022-12-14T06:53:46.796Z,100131.81
2022-12-14T06:56:15.299Z,100133.97
2022-12-14T06:58:42.496Z,100140.63
2022-12-14T07:01:14.346Z,100139.13
2022-12-14T07:03:41.621Z,100134.56
2022-12-14T07:06:08.492Z,100139.53
2022-12-14T07:08:36.104Z,100142.53
2022-12-14T07:11:03.607Z,100151.13
2022-12-14T07:13:30.830Z,100138.41
2022-12-14T07:15:58.789Z,100152.63
2022-12-14T07:18:31.417Z,100136.84
2022-12-14T07:21:02.258Z,100142.63
2022-12-14T07:23:30.395Z,100147.56
2022-12-14T07:26:04.860Z,100152.53
2022-12-14T07:28:32.028Z,100149.09
2022-12-14T07:30:59.793Z,100153.56
2022-12-14T07:33:27.381Z,100149.56
2022-12-14T07:36:03.541Z,100152.88
2022-12-14T07:38:30.507Z,100148.94
2022-12-14T07:41:17.677Z,100141.03
2022-12-14T07:43:49.814Z,100140.41
2022-12-14T07:46:18.917Z,100144.50
2022-12-14T07:48:46.742Z,100154.59
2022-12-14T07:51:20.835Z,100147.50
2022-12-14T07:53:48.622Z,100154.09
2022-12-14T07:56:16.568Z,100163.34
2022-12-14T07:58:43.338Z,100156.28
2022-12-14T08:01:11.673Z,100162.88
2022-12-14T08:03:39.185Z,100167.75
2022-12-14T08:06:07.293Z,100170.06
2022-12-14T08:08:34.221Z,100173.06
2022-12-14T08:11:00.964Z,100177.50
2022-12-14T08:13:28.430Z,100184.44
2022-12-14T08:15:55.404Z,100182.47
2022-12-14T08:18:26.121Z,100184.94
2022-12-14T08:20:53.412Z,100185.78
2022-12-14T08:23:20.158Z,100191.38
2022-12-14T08:25:52.378Z,100197.00
2022-12-14T08:28:19.518Z,100210.69
2022-12-14T08:30:46.245Z,100202.47
2022-12-14T08:33:12.896Z,100203.81
2022-12-14T08:35:39.741Z,100209.06
2022-12-14T08:38:06.595Z,100209.91
2022-12-14T08:40:36.828Z,100209.59
2022-12-14T08:43:03.828Z,100216.50
2022-12-14T08:45:30.464Z,100205.81
2022-12-14T08:47:58.399Z,100212.72
2022-12-14T08:50:25.324Z,100219.69
2022-12-14T08:52:52.394Z,100219.34
2022-12-14T08:55:25.452Z,100222.66
2022-12-14T08:57:54.399Z,100217.56
2022-12-14T09:00:21.071Z,100216.91
2022-12-14T09:02:50.046Z,100221.06
2022-12-14T09:05:17.227Z,100226.38
2022-12-14T09:07:43.881Z,100220.44
2022-12-14T09:10:11.321Z,100227.38
2022-12-14T09:12:45.177Z,100228.72
2022-12-14T09:15:12.111Z,100232.00
2022-12-14T09:17:38.931Z,100235.63
2022-12-14T09:20:05.897Z,100242.25
2022-12-14T09:22:32.650Z,100245.06
2022-12-14T09:24:59.317Z,100240.78
2022-12-14T09:27:26.013Z,100237.63
2022-12-14T09:29:52.656Z,100237.31
2022-12-14T09:32:19.229Z,100239.47
2022-12-14T09:34:45.807Z,100245.91
2022-12-14T09:37:12.804Z,100250.06
2022-12-14T09:39:39.550Z,100249.72
2022-12-14T09:42:35.718Z,100253.88
2022-12-14T09:45:02.371Z,100268.38
2022-12-14T09:47:32.823Z,100286.06
2022-12-14T09:50:07.183Z,100285.75
2022-12-14T09:52:41.112Z,100286.56
2022-12-14T09:55:17.156Z,100289.38
2022-12-14T09:57:44.421Z,100289.38
2022-12-14T10:00:14.193Z,100293.03
2022-12-14T10:02:46.534Z,100294.16
2022-12-14T10:05:32.026Z,100296.16
2022-12-14T10:08:04.316Z,100304.56
2022-12-14T10:10:49.780Z,100301.75
2022-12-14T10:13:21.114Z,100301.75
2022-12-14T10:15:57.534Z,100306.53
2022-12-14T10:18:58.979Z,100303.22
2022-12-14T10:21:31.770Z,100304.41
2022-12-14T10:24:01.020Z,100307.50
2022-12-14T10:26:31.442Z,100301.38
2022-12-14T10:29:27.518Z,100291.34
2022-12-14T10:32:03.558Z,100294.47
2022-12-14T10:34:31.314Z,100297.91
2022-12-14T10:37:07.876Z,100303.84
2022-12-14T10:39:43.635Z,100293.28
2022-12-14T10:42:22.348Z,100299.53
2022-12-14T10:45:04.383Z,100301.00
2022-12-14T10:47:44.665Z,100291.91
2022-12-14T10:50:20.432Z,100296.81
2022-12-14T10:52:49.342Z,100296.13
2022-12-14T10:55:18.849Z,100298.22
2022-12-14T10:57:45.478Z,100296.88
2022-12-14T11:00:22.600Z,100308.22
2022-12-14T11:02:54.519Z,100297.19
2022-12-14T11:05:24.379Z,100295.34
2022-12-14T11:07:51.164Z,100300.75
2022-12-14T11:10:25.930Z,100294.13
2022-12-14T11:12:55.516Z,100300.69
2022-12-14T11:15:33.693Z,100296.56
2022-12-14T11:18:03.925Z,100298.34
2022-12-14T11:20:30.865Z,100306.53
2022-12-14T11:22:59.341Z,100300.75
2022-12-14T11:25:35.544Z,100297.13
2022-12-14T11:28:17.341Z,100302.25
2022-12-14T11:31:16.544Z,100301.09
2022-12-14T11:33:50.132Z,100304.69
2022-12-14T11:36:23.208Z,100309.16
2022-12-14T11:39:00.609Z,100299.63
2022-12-14T11:41:38.635Z,100300.44
2022-12-14T11:44:14.389Z,100298.97
2022-12-14T11:46:59.249Z,100296.16
2022-12-14T11:49:32.656Z,100293.06
2022-12-14T11:52:00.970Z,100305.09
2022-12-14T11:54:28.064Z,100291.56
2022-12-14T11:57:03.174Z,100287.63
2022-12-14T11:59:41.253Z,100290.13
2022-12-14T12:02:22.434Z,100289.81
2022-12-14T12:04:57.579Z,100291.13
2022-12-14T12:07:44.408Z,100296.44
2022-12-14T12:10:13.778Z,100292.44
2022-12-14T12:12:52.608Z,100299.41
2022-12-14T12:15:30.561Z,100301.91
2022-12-14T12:18:01.217Z,100308.84
2022-12-14T12:20:50.590Z,100307.69
2022-12-14T12:23:20.379Z,100304.56
2022-12-14T12:25:48.832Z,100305.91
2022-12-14T12:28:20.863Z,100298.63
2022-12-14T12:30:50.164Z,100305.91
2022-12-14T12:33:29.076Z,100307.03
2022-12-14T12:35:56.675Z,100312.66
2022-12-14T12:38:26.325Z,100316.28
2022-12-14T12:40:56.877Z,100319.09
2022-12-14T12:43:50.235Z,100316.28
2022-12-14T12:46:19.202Z,100325.00
2022-12-14T12:48:48.947Z,100320.56
2022-12-14T12:51:30.238Z,100325.34
2022-12-14T12:53:59.948Z,100326.50
2022-12-14T12:56:36.660Z,100322.84
2022-12-14T12:59:04.470Z,100315.59
2022-12-14T13:01:52.065Z,100327.63
2022-12-14T13:04:32.395Z,100329.31
2022-12-14T13:07:03.325Z,100329.00
2022-12-14T13:09:39.844Z,100326.97
2022-12-14T13:12:11.327Z,100329.47
2022-12-14T13:14:42.415Z,100331.16
2022-12-14T13:17:21.688Z,100326.38
2022-12-14T13:19:52.663Z,100327.69
2022-12-14T13:22:30.794Z,100318.44
2022-12-14T13:25:26.897Z,100326.84
2022-12-14T13:28:19.770Z,100328.03
2022-12-14T13:30:53.740Z,100328.81
2022-12-14T13:33:20.347Z,100322.41
2022-12-14T13:35:47.036Z,100326.38
2022-12-14T13:38:31.163Z,100325.84
2022-12-14T13:41:17.271Z,100336.44
2022-12-14T13:44:02.754Z,100333.63
2022-12-14T13:46:30.055Z,100340.88
2022-12-14T13:49:03.225Z,100349.81
2022-12-14T13:51:31.077Z,100340.94
2022-12-14T13:53:59.386Z,100352.53
2022-12-14T13:56:34.141Z,100351.06
2022-12-14T13:59:03.133Z,100352.09
2022-12-14T14:01:48.114Z,100355.41
2022-12-14T14:04:18.646Z,100351.47
2022-12-14T14:06:47.803Z,100351.97
2022-12-14T14:09:24.793Z,100360.06
2022-12-14T14:12:01.725Z,100357.25
2022-12-14T14:14:37.341Z,100354.47
2022-12-14T14:17:09.498Z,100359.25
2022-12-14T14:19:39.695Z,100365.69
2022-12-14T14:22:26.055Z,100364.84
2022-12-14T14:24:53.065Z,100370.78
2022-12-14T14:27:20.710Z,100372.78
2022-12-14T14:29:49.336Z,100378.69
2022-12-14T14:32:37.374Z,100386.59
2022-12-14T14:35:06.171Z,100384.13
2022-12-14T14:37:34.729Z,100390.84
2022-12-14T14:40:13.274Z,100391.50
2022-12-14T14:42:53.332Z,100388.47
2022-12-14T14:45:38.077Z,100389.66
2022-12-14T14:48:23.214Z,100390.28
2022-12-14T14:51:01.164Z,100395.69
2022-12-14T14:53:29.239Z,100402.78
2022-12-14T14:56:05.135Z,100397.50
2022-12-14T14:58:39.260Z,100399.28
2022-12-14T15:01:06.486Z,100408.31
2022-12-14T15:03:43.464Z,100415.69
2022-12-14T15:06:15.811Z,100416.34
2022-12-14T15:08:47.943Z,100417.31
2022-12-14T15:11:19.421Z,100417.94
2022-12-14T15:13:48.309Z,100419.72
2022-12-14T15:16:21.545Z,100417.88
2022-12-14T15:18:53.994Z,100424.09
2022-12-14T15:21:20.719Z,100427.84
2022-12-14T15:23:52.407Z,100422.03
2022-12-14T15:26:21.241Z,100427.47
2022-12-14T15:28:52.210Z,100420.00
2022-12-14T15:32:01.269Z,100424.56
2022-12-14T15:34:28.295Z,100435.56
2022-12-14T15:36:55.407Z,100430.59
2022-12-14T15:39:29.705Z,100430.41
2022-12-14T15:42:03.835Z,100441.41
2022-12-14T15:44:30.406Z,100438.88
2022-12-14T15:46:57.055Z,100437.84
2022-12-14T15:49:23.984Z,100443.25
2022-12-14T15:51:51.471Z,100437.44
2022-12-14T15:54:19.826Z,100450.09
2022-12-14T15:56:51.053Z,100448.22
2022-12-14T15:59:21.802Z,100450.84
2022-12-14T16:01:55.283Z,100455.06
2022-12-14T16:04:25.993Z,100456.84
2022-12-14T16:07:08.471Z,100458.59
2022-12-14T16:09:38.132Z,100459.53
2022-12-14T16:12:08.160Z,100450.09
2022-12-14T16:14:44.130Z,100459.44
2022-12-14T16:17:16.633Z,100458.91
2022-12-14T16:19:59.667Z,100463.47
2022-12-14T16:22:28.418Z,100454.84
2022-12-14T16:25:00.692Z,100463.56
2022-12-14T16:27:28.320Z,100462.50
2022-12-14T16:30:05.191Z,100463.44
2022-12-14T16:32:31.836Z,100468.00
2022-12-14T16:34:59.716Z,100472.25
2022-12-14T16:37:41.876Z,100468.41
2022-12-14T16:40:34.992Z,100472.97
2022-12-14T16:43:02.403Z,100469.94
2022-12-14T16:45:46.174Z,100473.06
2022-12-14T16:48:22.431Z,100475.91
2022-12-14T16:50:57.392Z,100466.13
2022-12-14T16:53:30.021Z,100471.53
2022-12-14T16:56:05.274Z,100468.22
2022-12-14T16:58:32.348Z,100467.97
2022-12-14T17:01:01.780Z,100466.63
2022-12-14T17:03:30.818Z,100466.09
2022-12-14T17:06:01.765Z,100469.50
2022-12-14T17:08:28.508Z,100468.97
2022-12-14T17:10:55.515Z,100468.75
2022-12-14T17:13:22.117Z,100473.00
2022-12-14T17:16:07.964Z,100470.81
2022-12-14T17:18:37.899Z,100478.13
2022-12-14T17:21:05.612Z,100477.94
2022-12-14T17:23:32.788Z,100469.31
2022-12-14T17:25:59.837Z,100475.53
2022-12-14T17:28:28.352Z,100473.31
2022-12-14T17:30:57.569Z,100476.72
2022-12-14T17:33:27.999Z,100469.81
2022-12-14T17:35:55.537Z,100468.72
2022-12-14T17:38:22.552Z,100472.13
2022-12-14T17:40:50.647Z,100470.78
2022-12-14T17:43:22.362Z,100478.91
2022-12-14T17:45:49.084Z,100487.91
2022-12-14T17:48:16.693Z,100480.97
2022-12-14T17:50:44.842Z,100482.38
2022-12-14T17:53:15.189Z,100485.50
2022-12-14T17:55:41.833Z,100488.03
2022-12-14T17:58:10.215Z,100492.28
2022-12-14T18:00:55.842Z,100489.78
2022-12-14T18:03:22.529Z,100494.31
2022-12-14T18:05:49.872Z,100494.94
2022-12-14T18:08:20.100Z,100507.22
2022-12-14T18:10:47.560Z,100505.84
2022-12-14T18:13:14.249Z,100510.03
2022-12-14T18:15:49.617Z,100509.53
2022-12-14T18:18:17.766Z,100515.69
2022-12-14T18:20:45.455Z,100528.00
2022-12-14T18:23:16.576Z,100529.44
2022-12-14T18:26:05.385Z,100530.88
2022-12-14T18:28:32.200Z,100533.13
2022-12-14T18:31:02.168Z,100525.03
2022-12-14T18:33:29.222Z,100520.03
2022-12-14T18:35:56.987Z,100530.66
2022-12-14T18:38:24.129Z,100522.91
2022-12-14T18:40:51.765Z,100528.75
2022-12-14T18:43:23.782Z,100529.09
2022-12-14T18:45:51.683Z,100538.03
2022-12-14T18:48:18.312Z,100528.59
2022-12-14T18:50:45.130Z,100528.06
2022-12-14T18:53:15.617Z,100530.31
2022-12-14T18:55:42.890Z,100534.78
2022-12-14T18:58:14.696Z,100538.41
2022-12-14T19:00:41.426Z,100540.91
2022-12-14T19:03:08.327Z,100548.13
2022-12-14T19:05:35.321Z,100546.72
2022-12-14T19:08:02.003Z,100538.03
2022-12-14T19:10:31.245Z,100545.84
2022-12-14T19:12:58.367Z,100543.28
2022-12-14T19:15:38.522Z,100546.28
2022-12-14T19:18:05.285Z,100551.81
2022-12-14T19:20:32.075Z,100556.81
2022-12-14T19:22:58.945Z,100560.69
2022-12-14T19:25:25.797Z,100564.56
2022-12-14T19:30:40.841Z,100561.13
2022-12-14T19:33:07.470Z,100562.19
2022-12-14T19:35:34.093Z,100566.88
2022-12-14T19:38:02.657Z,100564.31
2022-12-14T19:40:29.328Z,100574.31
2022-12-14T19:42:57.166Z,100561.69
2022-12-14T19:45:23.791Z,100566.38
2022-12-14T19:47:50.863Z,100567.44
2022-12-14T19:50:17.655Z,100567.38
2022-12-14T19:52:44.313Z,100572.91
2022-12-14T19:55:12.130Z,100568.38
2022-12-14T19:57:39.531Z,100578.66
2022-12-14T20:00:06.914Z,100568.53
2022-12-14T20:02:35.212Z,100569.28
2022-12-14T20:05:02.032Z,100570.34
2022-12-14T20:07:30.114Z,100573.34
2022-12-14T20:09:56.991Z,100564.88
2022-12-14T20:12:25.561Z,100573.53
2022-12-14T20:14:52.340Z,100572.63
2022-12-14T20:17:19.494Z,100571.72
2022-12-14T20:19:46.261Z,100580.31
2022-12-14T20:22:15.127Z,100575.78
2022-12-14T20:24:43.329Z,100571.28
2022-12-14T20:27:10.305Z,100569.53
2022-12-14T20:29:37.513Z,100578.13
2022-12-14T20:32:07.015Z,100574.41
2022-12-14T20:34:33.624Z,100580.25
2022-12-14T20:37:00.914Z,100592.50
2022-12-14T20:39:27.669Z,100593.56
2022-12-14T20:41:54.729Z,100594.59
2022-12-14T20:44:21.458Z,100601.53
2022-12-14T20:46:51.898Z,100599.78
2022-12-14T20:49:19.831Z,100602.28
2022-12-14T20:51:47.397Z,100605.84
2022-12-14T20:54:15.602Z,100604.91
2022-12-14T20:56:43.530Z,100602.97
2022-12-14T20:59:10.688Z,100604.00
2022-12-14T21:01:38.773Z,100603.38
2022-12-14T21:04:06.901Z,100602.78
2022-12-14T21:06:36.336Z,100603.00
2022-12-14T21:09:05.756Z,100602.38
2022-12-14T21:12:01.819Z,100604.53
2022-12-14T21:14:31.573Z,100595.53
2022-12-14T21:17:00.805Z,100594.09
2022-12-14T21:19:28.388Z,100594.63
2022-12-14T21:21:55.157Z,100602.09
2022-12-14T21:24:44.728Z,100595.88
2022-12-14T21:27:10.216Z,100598.03
2022-12-14T21:29:36.868Z,100601.38
2022-12-14T21:32:04.497Z,100599.94
2022-12-14T21:34:32.027Z,100588.13
2022-12-14T21:36:59.181Z,100598.72
2022-12-14T21:39:25.936Z,100592.81
2022-12-14T21:42:10.728Z,100599.75
2022-12-14T21:44:37.674Z,100592.72
2022-12-14T21:47:05.549Z,100596.84
2022-12-14T21:49:32.244Z,100608.25
2022-12-14T21:51:58.913Z,100609.94
2022-12-14T21:54:25.951Z,100608.16
2022-12-14T21:57:11.213Z,100610.66
2022-12-14T21:59:39.084Z,100610.03
2022-12-14T22:02:07.630Z,100616.19
2022-12-14T22:04:39.563Z,100610.25
2022-12-14T22:07:06.570Z,100612.44
2022-12-14T22:09:33.234Z,100610.13
2022-12-14T22:11:59.848Z,100616.28
2022-12-14T22:14:31.778Z,100615.13
2022-12-14T22:16:58.416Z,100622.09
2022-12-14T22:19:25.369Z,100622.63
2022-12-14T22:21:52.745Z,100620.31
2022-12-14T22:24:21.111Z,100617.22
2022-12-14T22:26:48.198Z,100629.75
2022-12-14T22:29:16.090Z,100630.00
2022-12-14T22:31:43.320Z,100629.66
2022-12-14T22:34:20.685Z,100632.16
2022-12-14T22:36:48.020Z,100632.66
2022-12-14T22:39:14.853Z,100634.84
2022-12-14T22:41:41.646Z,100641.81
2022-12-14T22:44:09.756Z,100646.28
2022-12-14T22:46:36.452Z,100644.81
2022-12-14T22:49:04.302Z,100648.66
2022-12-14T22:51:31.071Z,100636.81
2022-12-14T22:53:57.951Z,100645.72
2022-12-14T22:56:46.182Z,100643.16
2022-12-14T22:59:17.631Z,100639.69
2022-12-14T23:01:50.028Z,100641.91
2022-12-14T23:04:17.835Z,100634.84
2022-12-14T23:06:45.665Z,100640.66
2022-12-14T23:09:30.875Z,100649.25
2022-12-14T23:12:21.579Z,100639.41
2022-12-14T23:15:14.086Z,100652.81
2022-12-14T23:18:07.498Z,100663.38
2022-12-14T23:20:53.307Z,100664.75
2022-12-14T23:23:39.195Z,100667.22
2022-12-14T23:26:25.029Z,100665.47
2022-12-14T23:29:10.770Z,100671.09
2022-12-14T23:31:56.079Z,100670.94
2022-12-14T23:34:41.256Z,100675.94
2022-12-14T23:37:26.831Z,100674.47
2022-12-14T23:40:11.790Z,100672.19
2022-12-14T23:42:56.998Z,100677.16
2022-12-14T23:45:42.142Z,100669.25
2022-12-14T23:48:27.247Z,100673.72
2022-12-14T23:51:13.045Z,100668.63
2022-12-14T23:53:57.970Z,100677.53
2022-12-14T23:56:43.046Z,100655.59
2022-12-14T23:59:32.831Z,100660.91
